createdAt,value
2023-02-25T00:02:03.167Z,97.76
2023-02-25T00:04:32.958Z,97.65
2023-02-25T00:07:22.976Z,97.59
2023-02-25T00:09:54.256Z,97.86
2023-02-25T00:12:24.145Z,97.65
2023-02-25T00:14:52.174Z,97.55
2023-02-25T00:17:20.760Z,97.81
2023-02-25T00:19:50.277Z,97.93
2023-02-25T00:22:21.415Z,97.86
2023-02-25T00:24:53.676Z,97.92
2023-02-25T00:27:22.470Z,97.81
2023-02-25T00:29:54.434Z,97.68
2023-02-25T00:32:23.496Z,97.63
2023-02-25T00:34:52.131Z,97.91
2023-02-25T00:37:20.362Z,97.84
2023-02-25T00:39:48.661Z,97.57
2023-02-25T00:42:17.769Z,97.35
2023-02-25T00:44:47.233Z,97.63
2023-02-25T00:47:17.251Z,97.51
2023-02-25T00:49:47.812Z,97.64
2023-02-25T00:52:16.042Z,97.50
2023-02-25T00:54:44.020Z,97.53
2023-02-25T00:57:12.642Z,97.32
2023-02-25T00:59:41.326Z,97.36
2023-02-25T01:02:10.217Z,97.37
2023-02-25T01:04:38.742Z,96.96
2023-02-25T01:07:08.620Z,96.85
2023-02-25T01:09:37.096Z,97.17
2023-02-25T01:12:05.364Z,97.38
2023-02-25T01:14:33.883Z,97.07
2023-02-25T01:17:03.146Z,96.91
2023-02-25T01:19:34.051Z,97.14
2023-02-25T01:22:02.556Z,97.09
2023-02-25T01:24:33.263Z,96.69
2023-02-25T01:27:02.830Z,96.69
2023-02-25T01:29:35.572Z,96.61
2023-02-25T01:32:04.280Z,96.77
2023-02-25T01:34:33.312Z,96.93
2023-02-25T01:37:06.225Z,96.97
2023-02-25T01:39:37.734Z,96.78
2023-02-25T01:42:13.179Z,96.58
2023-02-25T01:45:12.344Z,96.76
2023-02-25T01:47:40.636Z,97.14
2023-02-25T01:50:10.248Z,96.66
2023-02-25T01:52:38.818Z,96.65
2023-02-25T01:55:09.692Z,96.95
2023-02-25T01:57:38.939Z,97.12
2023-02-25T02:00:12.608Z,97.04
2023-02-25T02:02:44.904Z,96.61
2023-02-25T02:05:13.414Z,96.68
2023-02-25T02:07:43.836Z,97.02
2023-02-25T02:10:12.627Z,96.94
2023-02-25T02:12:43.162Z,96.97
2023-02-25T02:15:13.871Z,97.47
2023-02-25T02:17:56.997Z,97.56
2023-02-25T02:20:44.239Z,97.71
2023-02-25T02:23:41.008Z,97.85
2023-02-25T02:26:37.968Z,97.97
2023-02-25T02:29:28.228Z,97.77
2023-02-25T02:32:15.893Z,98.07
2023-02-25T02:35:05.220Z,97.77
2023-02-25T02:37:44.806Z,97.98
2023-02-25T02:40:19.715Z,98.10
2023-02-25T02:42:51.440Z,98.13
2023-02-25T02:45:27.072Z,98.13
2023-02-25T02:47:59.287Z,98.42
2023-02-25T02:50:40.241Z,98.52
2023-02-25T02:53:16.442Z,98.29
2023-02-25T02:55:47.494Z,98.43
2023-02-25T02:58:23.312Z,98.51
2023-02-25T03:00:55.865Z,98.06
2023-02-25T03:03:36.474Z,98.07
2023-02-25T03:06:17.482Z,98.55
2023-02-25T03:08:59.606Z,98.07
2023-02-25T03:11:27.883Z,98.26
2023-02-25T03:13:59.789Z,98.44
2023-02-25T03:16:53.526Z,98.16
2023-02-25T03:19:30.173Z,98.48
2023-02-25T03:22:01.437Z,98.63
2023-02-25T03:25:02.761Z,98.61
2023-02-25T03:27:39.871Z,98.97
2023-02-25T03:30:13.155Z,99.16
2023-02-25T03:32:47.873Z,99.03
2023-02-25T03:35:19.426Z,99.17
2023-02-25T03:37:50.411Z,99.40
2023-02-25T03:40:19.887Z,99.17
2023-02-25T03:42:54.256Z,99.20
2023-02-25T03:45:22.452Z,99.36
2023-02-25T03:47:50.637Z,99.20
2023-02-25T03:50:28.816Z,99.20
2023-02-25T03:53:19.621Z,99.26
2023-02-25T03:55:52.350Z,99.43
2023-02-25T03:58:21.389Z,99.34
2023-02-25T04:00:58.932Z,99.44
2023-02-25T04:03:27.830Z,99.22
2023-02-25T04:05:56.217Z,99.26
2023-02-25T04:08:24.712Z,99.39
2023-02-25T04:10:52.866Z,99.20
2023-02-25T04:13:26.001Z,99.30
2023-02-25T04:15:54.428Z,99.38
2023-02-25T04:18:27.836Z,99.71
2023-02-25T04:20:56.668Z,99.23
2023-02-25T04:23:24.928Z,99.47
2023-02-25T04:25:53.570Z,99.74
2023-02-25T04:28:23.308Z,99.63
2023-02-25T04:30:51.531Z,99.48
2023-02-25T04:33:20.114Z,99.73
2023-02-25T04:35:49.723Z,99.89
2023-02-25T04:38:18.004Z,99.62
2023-02-25T04:40:47.435Z,99.91
2023-02-25T04:43:17.404Z,99.97
2023-02-25T04:45:47.050Z,99.94
2023-02-25T04:48:16.087Z,99.80
2023-02-25T04:50:44.584Z,99.73
2023-02-25T04:53:14.063Z,99.85
2023-02-25T04:55:42.539Z,99.69
2023-02-25T04:58:10.645Z,99.76
2023-02-25T05:00:40.643Z,99.88
2023-02-25T05:03:09.122Z,99.81
2023-02-25T05:05:37.877Z,99.83
2023-02-25T05:08:09.107Z,100.00
2023-02-25T05:10:38.016Z,99.85
2023-02-25T05:13:06.218Z,99.74
2023-02-25T05:15:37.186Z,99.82
2023-02-25T05:18:06.525Z,100.00
2023-02-25T05:20:34.972Z,99.72
2023-02-25T05:23:03.826Z,99.80
2023-02-25T05:25:33.861Z,99.88
2023-02-25T05:28:02.817Z,99.81
2023-02-25T05:30:31.397Z,99.81
2023-02-25T05:33:02.500Z,99.86
2023-02-25T05:35:32.653Z,99.96
2023-02-25T05:38:01.086Z,99.91
2023-02-25T05:40:29.269Z,99.66
2023-02-25T05:42:57.428Z,99.93
2023-02-25T05:45:25.765Z,99.97
2023-02-25T05:47:55.805Z,99.91
2023-02-25T05:50:24.317Z,99.77
2023-02-25T05:52:52.937Z,99.90
2023-02-25T05:55:21.556Z,99.93
2023-02-25T05:57:49.859Z,99.76
2023-02-25T06:00:21.573Z,99.92
2023-02-25T06:02:50.524Z,99.92
2023-02-25T06:05:19.030Z,99.51
2023-02-25T06:07:48.869Z,99.68
2023-02-25T06:10:18.210Z,99.80
2023-02-25T06:12:46.658Z,99.56
2023-02-25T06:15:15.823Z,99.82
2023-02-25T06:17:44.084Z,99.83
2023-02-25T06:20:16.611Z,99.95
2023-02-25T06:22:44.975Z,99.91
2023-02-25T06:25:13.121Z,99.88
2023-02-25T06:27:41.500Z,99.71
2023-02-25T06:30:12.260Z,99.61
2023-02-25T06:32:40.967Z,99.39
2023-02-25T06:35:09.871Z,99.22
2023-02-25T06:37:40.061Z,99.07
2023-02-25T06:40:09.706Z,98.96
2023-02-25T06:42:38.716Z,99.07
2023-02-25T06:45:09.493Z,98.79
2023-02-25T06:47:38.292Z,98.57
2023-02-25T06:50:07.473Z,98.78
2023-02-25T06:52:35.688Z,98.68
2023-02-25T06:55:07.058Z,98.36
2023-02-25T06:57:35.499Z,98.48
2023-02-25T07:00:05.820Z,98.42
2023-02-25T07:02:35.669Z,98.07
2023-02-25T07:05:06.232Z,97.33
2023-02-25T07:07:35.440Z,97.44
2023-02-25T07:10:04.165Z,97.35
2023-02-25T07:12:38.444Z,96.74
2023-02-25T07:15:07.986Z,96.72
2023-02-25T07:17:37.696Z,96.77
2023-02-25T07:20:09.439Z,96.38
2023-02-25T07:22:38.545Z,96.77
2023-02-25T07:25:08.750Z,96.71
2023-02-25T07:27:43.599Z,96.12
2023-02-25T07:30:18.417Z,96.14
2023-02-25T07:32:47.876Z,95.88
2023-02-25T07:35:23.097Z,95.71
2023-02-25T07:37:52.745Z,95.61
2023-02-25T07:40:22.796Z,94.95
2023-02-25T07:42:51.663Z,94.32
2023-02-25T07:45:25.124Z,94.63
2023-02-25T07:47:56.319Z,94.35
2023-02-25T07:50:29.153Z,93.89
2023-02-25T07:52:57.328Z,93.22
2023-02-25T07:55:26.235Z,93.08
2023-02-25T07:57:56.131Z,93.20
2023-02-25T08:00:24.299Z,92.97
2023-02-25T08:02:53.620Z,92.45
2023-02-25T08:05:24.882Z,92.19
2023-02-25T08:07:56.626Z,92.56
2023-02-25T08:10:25.040Z,92.38
2023-02-25T08:12:59.200Z,92.15
2023-02-25T08:17:03.054Z,91.91
2023-02-25T08:19:31.997Z,91.50
2023-02-25T08:22:00.635Z,91.03
2023-02-25T08:24:29.849Z,91.44
2023-02-25T08:26:58.333Z,91.77
2023-02-25T08:29:26.233Z,91.16
2023-02-25T08:31:54.350Z,91.32
2023-02-25T08:34:22.559Z,91.61
2023-02-25T08:36:50.484Z,91.20
2023-02-25T08:39:18.537Z,90.99
2023-02-25T08:41:47.673Z,91.30
2023-02-25T08:44:15.664Z,91.30
2023-02-25T08:46:43.862Z,91.14
2023-02-25T08:49:12.055Z,91.32
2023-02-25T08:51:40.857Z,90.65
2023-02-25T08:54:12.427Z,90.93
2023-02-25T08:56:44.583Z,89.64
2023-02-25T08:59:15.148Z,89.12
2023-02-25T09:01:46.245Z,89.43
2023-02-25T09:04:19.846Z,89.04
2023-02-25T09:06:49.152Z,88.82
2023-02-25T09:09:17.915Z,88.41
2023-02-25T09:11:46.152Z,87.73
2023-02-25T09:14:16.649Z,87.93
2023-02-25T09:16:44.699Z,86.65
2023-02-25T09:19:15.673Z,86.09
2023-02-25T09:21:50.459Z,85.74
2023-02-25T09:24:19.788Z,85.21
2023-02-25T09:26:48.294Z,84.77
2023-02-25T09:29:17.356Z,84.83
2023-02-25T09:31:46.043Z,83.97
2023-02-25T09:34:15.851Z,81.66
2023-02-25T09:36:44.570Z,80.52
2023-02-25T09:39:13.418Z,79.19
2023-02-25T09:42:01.478Z,77.85
2023-02-25T09:44:36.710Z,77.31
2023-02-25T09:47:19.667Z,77.41
2023-02-25T09:49:56.580Z,76.13
2023-02-25T09:52:32.095Z,74.60
2023-02-25T09:55:16.686Z,74.34
2023-02-25T09:58:20.128Z,72.56
2023-02-25T10:00:55.592Z,71.37
2023-02-25T10:03:57.228Z,70.94
2023-02-25T10:06:39.216Z,69.48
2023-02-25T10:09:17.803Z,67.69
2023-02-25T10:11:54.269Z,66.52
2023-02-25T10:14:32.110Z,66.29
2023-02-25T10:17:18.438Z,66.09
2023-02-25T10:20:05.784Z,64.30
2023-02-25T10:23:16.330Z,62.92
2023-02-25T10:25:52.918Z,61.67
2023-02-25T10:28:21.709Z,61.87
2023-02-25T10:31:04.043Z,61.20
2023-02-25T10:33:37.962Z,61.37
2023-02-25T10:36:16.554Z,61.59
2023-02-25T10:38:47.101Z,61.53
2023-02-25T10:41:15.875Z,61.51
2023-02-25T10:43:45.456Z,60.98
2023-02-25T10:46:17.721Z,61.56
2023-02-25T10:49:00.736Z,61.00
2023-02-25T10:51:30.434Z,58.84
2023-02-25T10:53:58.492Z,57.79
2023-02-25T10:56:31.321Z,57.76
2023-02-25T10:59:19.992Z,57.99
2023-02-25T11:01:50.784Z,58.11
2023-02-25T11:04:23.727Z,57.38
2023-02-25T11:06:53.302Z,56.36
2023-02-25T11:09:21.298Z,56.80
2023-02-25T11:11:56.364Z,58.15
2023-02-25T11:14:28.753Z,58.64
2023-02-25T11:17:16.254Z,59.03
2023-02-25T11:19:58.447Z,60.55
2023-02-25T11:22:40.052Z,62.18
2023-02-25T11:25:15.808Z,63.45
2023-02-25T11:27:45.175Z,64.71
2023-02-25T11:30:25.874Z,65.73
2023-02-25T11:32:55.249Z,66.69
2023-02-25T11:35:30.032Z,67.65
2023-02-25T11:37:59.185Z,68.01
2023-02-25T11:40:34.009Z,68.76
2023-02-25T11:43:33.559Z,68.91
2023-02-25T11:46:17.709Z,69.71
2023-02-25T11:48:51.142Z,70.26
2023-02-25T11:51:28.417Z,70.68
2023-02-25T11:54:03.100Z,70.62
2023-02-25T11:56:34.633Z,70.71
2023-02-25T11:59:16.890Z,70.28
2023-02-25T12:02:03.505Z,70.08
2023-02-25T12:05:00.605Z,70.47
2023-02-25T12:07:35.790Z,71.13
2023-02-25T12:10:41.575Z,71.22
2023-02-25T12:13:24.935Z,71.43
2023-02-25T12:16:29.986Z,71.35
2023-02-25T12:19:29.355Z,71.56
2023-02-25T12:22:34.623Z,71.99
2023-02-25T12:25:05.542Z,72.66
2023-02-25T12:28:08.448Z,73.30
2023-02-25T12:31:01.675Z,73.30
2023-02-25T12:33:57.777Z,73.43
2023-02-25T12:36:34.103Z,73.80
2023-02-25T12:39:06.141Z,73.90
2023-02-25T12:41:58.779Z,74.51
2023-02-25T12:44:27.765Z,74.64
2023-02-25T12:47:05.101Z,74.84
2023-02-25T12:50:16.345Z,75.34
2023-02-25T12:53:03.553Z,75.31
2023-02-25T12:56:00.351Z,75.82
2023-02-25T12:58:56.452Z,75.58
2023-02-25T13:01:41.725Z,75.78
2023-02-25T13:04:31.623Z,75.76
2023-02-25T13:07:14.831Z,75.86
2023-02-25T13:09:50.999Z,76.40
2023-02-25T13:12:28.529Z,76.42
2023-02-25T13:15:12.852Z,76.20
2023-02-25T13:18:07.209Z,76.03
2023-02-25T13:21:17.210Z,76.32
2023-02-25T13:24:11.139Z,75.81
2023-02-25T13:26:55.155Z,75.98
2023-02-25T13:29:55.345Z,76.01
2023-02-25T13:32:29.190Z,76.25
2023-02-25T13:35:09.867Z,76.24
2023-02-25T13:37:49.971Z,76.43
2023-02-25T13:40:40.171Z,76.32
2023-02-25T13:43:34.169Z,76.57
2023-02-25T13:46:05.474Z,76.87
2023-02-25T13:48:39.291Z,77.42
2023-02-25T13:51:42.234Z,77.30
2023-02-25T13:54:22.761Z,77.62
2023-02-25T13:57:05.706Z,77.48
2023-02-25T13:59:44.030Z,77.96
2023-02-25T14:02:41.841Z,78.08
2023-02-25T14:05:31.482Z,78.22
2023-02-25T14:08:32.840Z,78.35
2023-02-25T14:11:19.867Z,78.67
2023-02-25T14:14:06.431Z,78.82
2023-02-25T14:16:42.866Z,78.81
2023-02-25T14:19:42.301Z,78.82
2023-02-25T14:22:36.187Z,79.17
2023-02-25T14:25:28.649Z,79.66
2023-02-25T14:28:22.904Z,79.93
2023-02-25T14:31:10.367Z,80.40
2023-02-25T14:34:11.969Z,80.61
2023-02-25T14:36:47.465Z,80.90
2023-02-25T14:39:41.309Z,80.95
2023-02-25T14:42:21.947Z,80.97
2023-02-25T14:45:05.682Z,81.46
2023-02-25T14:47:48.056Z,81.60
2023-02-25T14:50:52.316Z,82.21
2023-02-25T14:53:58.456Z,81.76
2023-02-25T14:56:46.330Z,82.16
2023-02-25T14:59:52.136Z,82.20
2023-02-25T15:02:35.488Z,82.82
2023-02-25T15:05:12.925Z,82.88
2023-02-25T15:08:02.695Z,82.90
2023-02-25T15:10:41.709Z,82.83
2023-02-25T15:13:29.499Z,83.01
2023-02-25T15:16:20.920Z,83.13
2023-02-25T15:18:55.467Z,83.30
2023-02-25T15:21:32.421Z,83.41
2023-02-25T15:24:01.127Z,83.72
2023-02-25T15:26:41.403Z,83.71
2023-02-25T15:29:28.281Z,83.45
2023-02-25T15:32:25.058Z,83.49
2023-02-25T15:34:56.358Z,83.97
2023-02-25T15:37:31.735Z,83.80
2023-02-25T15:40:16.141Z,83.79
2023-02-25T15:42:46.525Z,83.82
2023-02-25T15:45:27.317Z,83.81
2023-02-25T15:48:08.087Z,83.63
2023-02-25T15:50:42.385Z,83.38
2023-02-25T15:53:23.579Z,83.23
2023-02-25T15:56:07.393Z,83.29
2023-02-25T15:58:56.465Z,82.83
2023-02-25T16:01:29.639Z,83.21
2023-02-25T16:03:58.237Z,83.75
2023-02-25T16:06:33.375Z,83.81
2023-02-25T16:09:18.027Z,83.47
2023-02-25T16:11:53.714Z,84.57
2023-02-25T16:14:37.754Z,85.40
2023-02-25T16:17:11.717Z,86.74
2023-02-25T16:19:43.477Z,88.15
2023-02-25T16:22:16.414Z,89.21
2023-02-25T16:24:50.241Z,89.82
2023-02-25T16:27:35.108Z,90.68
2023-02-25T16:30:12.311Z,91.75
2023-02-25T16:33:20.693Z,92.88
2023-02-25T16:35:59.943Z,93.20
2023-02-25T16:38:56.325Z,93.62
2023-02-25T16:41:33.326Z,94.20
2023-02-25T16:44:07.100Z,94.11
2023-02-25T16:46:37.528Z,93.84
2023-02-25T16:49:11.337Z,93.69
2023-02-25T16:51:39.892Z,93.91
2023-02-25T16:54:15.440Z,94.16
2023-02-25T16:56:46.491Z,93.97
2023-02-25T16:59:14.613Z,94.19
2023-02-25T17:01:50.481Z,94.55
2023-02-25T17:04:24.817Z,94.66
2023-02-25T17:07:07.630Z,94.67
2023-02-25T17:09:36.382Z,95.09
2023-02-25T17:12:07.068Z,95.50
2023-02-25T17:14:35.595Z,95.40
2023-02-25T17:17:03.944Z,95.24
2023-02-25T17:19:36.689Z,94.24
2023-02-25T17:22:05.410Z,93.41
2023-02-25T17:24:33.666Z,93.01
2023-02-25T17:27:03.155Z,92.26
2023-02-25T17:29:35.470Z,92.12
2023-02-25T17:32:25.252Z,91.75
2023-02-25T17:34:59.858Z,91.90
2023-02-25T17:37:29.432Z,92.43
2023-02-25T17:39:57.571Z,92.68
2023-02-25T17:42:33.097Z,92.19
2023-02-25T17:45:02.138Z,92.42
2023-02-25T17:47:33.933Z,92.49
2023-02-25T17:50:25.695Z,92.88
2023-02-25T17:52:58.479Z,92.81
2023-02-25T17:55:28.729Z,93.31
2023-02-25T17:57:58.607Z,93.73
2023-02-25T18:00:29.643Z,93.94
2023-02-25T18:03:17.987Z,93.68
2023-02-25T18:05:53.654Z,93.70
2023-02-25T18:08:24.260Z,94.48
2023-02-25T18:11:02.396Z,94.50
2023-02-25T18:13:36.228Z,94.66
2023-02-25T18:16:32.292Z,94.60
2023-02-25T18:19:24.987Z,95.09
2023-02-25T18:21:53.428Z,95.59
2023-02-25T18:24:35.917Z,95.84
2023-02-25T18:27:07.570Z,95.90
2023-02-25T18:29:35.520Z,96.18
2023-02-25T18:32:05.280Z,96.35
2023-02-25T18:34:37.177Z,96.59
2023-02-25T18:37:14.861Z,96.29
2023-02-25T18:39:47.486Z,96.48
2023-02-25T18:42:18.673Z,96.45
2023-02-25T18:44:47.437Z,96.20
2023-02-25T18:47:16.887Z,96.29
2023-02-25T18:49:45.491Z,97.05
2023-02-25T18:52:22.124Z,97.60
2023-02-25T18:54:55.182Z,97.34
2023-02-25T18:57:27.142Z,97.66
2023-02-25T18:59:55.617Z,98.04
2023-02-25T19:02:35.199Z,98.10
2023-02-25T19:05:03.927Z,98.26
2023-02-25T19:07:34.569Z,98.51
2023-02-25T19:10:03.656Z,98.33
2023-02-25T19:12:33.894Z,98.10
2023-02-25T19:15:07.350Z,98.24
2023-02-25T19:17:37.370Z,98.09
2023-02-25T19:20:13.840Z,97.93
2023-02-25T19:22:50.532Z,97.79
2023-02-25T19:25:22.643Z,97.62
2023-02-25T19:27:52.424Z,97.88
2023-02-25T19:30:22.738Z,97.47
2023-02-25T19:33:04.333Z,97.16
2023-02-25T19:35:38.971Z,97.05
2023-02-25T19:38:20.147Z,97.29
2023-02-25T19:40:51.234Z,97.36
2023-02-25T19:43:19.414Z,97.28
2023-02-25T19:45:47.979Z,97.34
2023-02-25T19:48:16.971Z,97.54
2023-02-25T19:50:45.384Z,97.56
2023-02-25T19:53:14.543Z,97.06
2023-02-25T19:55:43.951Z,97.13
2023-02-25T19:58:12.255Z,96.54
2023-02-25T20:00:46.408Z,96.07
2023-02-25T20:03:15.399Z,95.97
2023-02-25T20:05:45.000Z,95.57
2023-02-25T20:08:13.806Z,95.81
2023-02-25T20:13:28.174Z,95.07
2023-02-25T20:16:01.392Z,94.83
2023-02-25T20:18:30.300Z,94.92
2023-02-25T20:21:01.464Z,94.98
2023-02-25T20:23:30.274Z,95.28
2023-02-25T20:26:10.592Z,94.81
2023-02-25T20:28:40.400Z,94.90
2023-02-25T20:31:12.123Z,95.09
2023-02-25T20:34:54.768Z,95.48
2023-02-25T20:37:24.786Z,95.22
2023-02-25T20:39:54.341Z,95.28
2023-02-25T20:42:24.678Z,95.32
2023-02-25T20:44:53.333Z,95.41
2023-02-25T20:47:27.266Z,95.37
2023-02-25T20:49:56.141Z,95.38
2023-02-25T20:52:29.990Z,95.86
2023-02-25T20:55:02.834Z,96.37
2023-02-25T20:57:33.454Z,96.35
2023-02-25T21:00:03.029Z,96.02
2023-02-25T21:02:31.953Z,96.51
2023-02-25T21:05:03.091Z,96.46
2023-02-25T21:07:31.963Z,96.25
2023-02-25T21:10:00.394Z,96.66
2023-02-25T21:12:29.290Z,96.85
2023-02-25T21:14:57.404Z,96.61
2023-02-25T21:17:26.258Z,96.39
2023-02-25T21:19:54.351Z,96.74
2023-02-25T21:22:26.254Z,96.66
2023-02-25T21:24:54.923Z,96.43
2023-02-25T21:27:24.203Z,96.59
2023-02-25T21:29:53.919Z,96.83
2023-02-25T21:32:22.738Z,96.43
2023-02-25T21:34:51.341Z,96.64
2023-02-25T21:37:19.886Z,96.64
2023-02-25T21:39:48.358Z,96.64
2023-02-25T21:42:22.891Z,96.62
2023-02-25T21:44:52.308Z,96.60
2023-02-25T21:47:25.927Z,96.63
2023-02-25T21:49:56.109Z,96.63
2023-02-25T21:52:26.212Z,96.63
2023-02-25T21:54:56.745Z,96.40
2023-02-25T21:57:27.764Z,96.49
2023-02-25T22:00:00.321Z,96.63
2023-02-25T22:02:30.482Z,96.48
2023-02-25T22:05:01.078Z,96.48
2023-02-25T22:07:30.735Z,96.36
2023-02-25T22:09:59.205Z,96.67
2023-02-25T22:12:27.694Z,96.70
2023-02-25T22:15:00.799Z,96.53
2023-02-25T22:17:29.639Z,97.00
2023-02-25T22:19:58.639Z,96.84
2023-02-25T22:22:26.819Z,96.86
2023-02-25T22:24:56.031Z,96.97
2023-02-25T22:27:24.280Z,96.83
2023-02-25T22:29:52.352Z,97.03
2023-02-25T22:32:21.399Z,97.02
2023-02-25T22:34:51.556Z,96.80
2023-02-25T22:37:19.755Z,96.83
2023-02-25T22:39:48.478Z,96.92
2023-02-25T22:42:16.742Z,96.80
2023-02-25T22:44:44.836Z,96.65
2023-02-25T22:47:13.158Z,96.45
2023-02-25T22:49:41.620Z,96.41
2023-02-25T22:52:09.551Z,96.41
2023-02-25T22:54:37.857Z,96.39
2023-02-25T22:57:06.218Z,96.52
2023-02-25T22:59:34.184Z,96.51
2023-02-25T23:02:03.154Z,96.41
2023-02-25T23:04:33.833Z,96.30
2023-02-25T23:07:02.331Z,96.46
2023-02-25T23:09:30.736Z,96.43
2023-02-25T23:12:02.987Z,96.47
2023-02-25T23:14:31.252Z,96.43
2023-02-25T23:16:59.791Z,96.57
2023-02-25T23:19:31.469Z,96.38
2023-02-25T23:21:59.850Z,96.28
2023-02-25T23:24:27.981Z,96.17
2023-02-25T23:27:01.234Z,96.19
2023-02-25T23:29:29.570Z,96.46
2023-02-25T23:31:58.280Z,96.36
2023-02-25T23:34:26.484Z,96.07
2023-02-25T23:36:55.923Z,95.86
2023-02-25T23:39:25.755Z,95.87
2023-02-25T23:41:53.876Z,95.82
2023-02-25T23:44:23.472Z,95.90
2023-02-25T23:46:55.215Z,95.79
2023-02-25T23:49:23.558Z,95.85
2023-02-25T23:51:52.663Z,96.15
2023-02-25T23:54:21.766Z,95.96
2023-02-25T23:56:51.434Z,95.67
2023-02-25T23:59:22.695Z,95.45
